Aérodrome :







RETROUVEZ-NOUS SUR...

 
LOGIN :

S'inscrire | Disclaimer

   EN    FR    IT 

 









Légende :    VFR   VFR Marginal   IFR   IFR Intensif   IFR Très Intensif
Visi : 
Plafond : 
>= 8 km
>= 3000ft
5 à 8 km
1000 à 3000 ft
1500m à 5 km
500 à 1000 ft
800 à 1500m
200 à 500 ft
< 800m
< 200 ft
Symboles :   Orages  Brouillard  Fortes neiges  Fortes précipitations  Vent > 20 kt






- Altitude de l'aérodrome : 603 ft
- Code IATA : LEB


KLEB - Lebanon Municipal

DERNIER METAR :
  • 020653Z AUTO 36007KT 10SM OVC023 04/M02 A2972 RMK AO2 SLP067 T00391022

METARs EXPIRÉS :
  • 020553Z AUTO 35006KT 10SM OVC024 04/M02 A2974 RMK AO2 SLP073 T00441017 10072 20044 58012
  • 020453Z AUTO 36005KT 10SM OVC023 04/M02 A2976 RMK AO2 SLP079 T00441017 401061033

TAF KLEB
Valide du 02 à 06h jusqu'au 03 à 06h UTC


020538Z 0206/0306 35005KT P6SM BKN020
FM021600 34009G15KT 6SM -RA OVC010
FM030000 34008KT 2SM -RA OVC008



MET'MAP, la Météo Aéronautique d'un coup d'oeil ! - Copyright ORBIFLY Décembre 2007 - Disclaimer

ORBIFLY MET'MAP TEAM :

Programmation & Développement : Alexandra Zaïnal
Sur une idée originale de : Baudouin d'Aumeries
Assistance à la programmation : Marc-Olivier Méhu
Soutien technique & logistique : Manuel Goepfert

Contact : metmap@orbifly.com




SOURCES & CREDITS :

   NOAA